sensor_id;sensor_type;location;lat;lon;timestamp;P1;durP1;ratioP1;P2;durP2;ratioP2
35442;SDS011;21561;55.654;37.592;2022-11-20T00:01:10;20.30;;;8.70;;
35442;SDS011;21561;55.654;37.592;2022-11-20T00:03:44;20.90;;;8.73;;
35442;SDS011;21561;55.654;37.592;2022-11-20T00:06:12;20.88;;;8.95;;
35442;SDS011;21561;55.654;37.592;2022-11-20T00:08:41;20.90;;;8.27;;
35442;SDS011;21561;55.654;37.592;2022-11-20T00:11:10;19.60;;;7.93;;
35442;SDS011;21561;55.654;37.592;2022-11-20T00:13:45;20.67;;;8.82;;
35442;SDS011;21561;55.654;37.592;2022-11-20T00:16:13;22.38;;;8.70;;
35442;SDS011;21561;55.654;37.592;2022-11-20T00:18:42;21.00;;;8.48;;
35442;SDS011;21561;55.654;37.592;2022-11-20T00:21:10;20.83;;;8.73;;
35442;SDS011;21561;55.654;37.592;2022-11-20T00:23:40;23.50;;;9.77;;
35442;SDS011;21561;55.654;37.592;2022-11-20T00:26:08;20.17;;;8.27;;
35442;SDS011;21561;55.654;37.592;2022-11-20T00:28:36;21.45;;;8.73;;
35442;SDS011;21561;55.654;37.592;2022-11-20T00:31:21;20.70;;;8.27;;
35442;SDS011;21561;55.654;37.592;2022-11-20T00:33:48;22.05;;;8.48;;
35442;SDS011;21561;55.654;37.592;2022-11-20T00:36:19;19.80;;;8.45;;
35442;SDS011;21561;55.654;37.592;2022-11-20T00:38:51;21.23;;;9.05;;
35442;SDS011;21561;55.654;37.592;2022-11-20T00:41:19;21.98;;;9.18;;
35442;SDS011;21561;55.654;37.592;2022-11-20T00:43:47;21.20;;;8.73;;
35442;SDS011;21561;55.654;37.592;2022-11-20T00:46:14;21.77;;;9.02;;
35442;SDS011;21561;55.654;37.592;2022-11-20T00:48:43;20.63;;;8.73;;
35442;SDS011;21561;55.654;37.592;2022-11-20T00:51:12;20.98;;;9.48;;
35442;SDS011;21561;55.654;37.592;2022-11-20T00:53:41;24.90;;;9.93;;
35442;SDS011;21561;55.654;37.592;2022-11-20T00:56:12;21.95;;;9.35;;
35442;SDS011;21561;55.654;37.592;2022-11-20T00:58:41;21.45;;;9.50;;
35442;SDS011;21561;55.654;37.592;2022-11-20T01:01:14;24.38;;;9.73;;
35442;SDS011;21561;55.654;37.592;2022-11-20T01:03:43;23.95;;;10.05;;
35442;SDS011;21561;55.654;37.592;2022-11-20T01:06:13;21.40;;;8.60;;
35442;SDS011;21561;55.654;37.592;2022-11-20T01:08:44;22.05;;;9.35;;
35442;SDS011;21561;55.654;37.592;2022-11-20T01:11:16;21.90;;;9.20;;
35442;SDS011;21561;55.654;37.592;2022-11-20T01:13:45;21.17;;;9.43;;
35442;SDS011;21561;55.654;37.592;2022-11-20T01:16:16;22.60;;;8.80;;
35442;SDS011;21561;55.654;37.592;2022-11-20T01:18:46;22.15;;;9.23;;
35442;SDS011;21561;55.654;37.592;2022-11-20T01:21:15;21.40;;;8.60;;
35442;SDS011;21561;55.654;37.592;2022-11-20T01:23:44;21.70;;;9.48;;
35442;SDS011;21561;55.654;37.592;2022-11-20T01:26:13;21.30;;;9.45;;
35442;SDS011;21561;55.654;37.592;2022-11-20T01:28:45;20.73;;;8.55;;
35442;SDS011;21561;55.654;37.592;2022-11-20T01:33:43;20.85;;;8.73;;
35442;SDS011;21561;55.654;37.592;2022-11-20T01:36:12;21.75;;;9.02;;
35442;SDS011;21561;55.654;37.592;2022-11-20T01:38:40;20.23;;;8.90;;
35442;SDS011;21561;55.654;37.592;2022-11-20T01:41:07;20.85;;;8.50;;
35442;SDS011;21561;55.654;37.592;2022-11-20T01:43:35;21.67;;;8.32;;
35442;SDS011;21561;55.654;37.592;2022-11-20T01:51:22;20.65;;;8.52;;
35442;SDS011;21561;55.654;37.592;2022-11-20T01:53:54;20.95;;;8.23;;
35442;SDS011;21561;55.654;37.592;2022-11-20T01:56:25;20.98;;;8.70;;
35442;SDS011;21561;55.654;37.592;2022-11-20T01:58:55;20.73;;;8.77;;
35442;SDS011;21561;55.654;37.592;2022-11-20T02:01:24;19.55;;;8.18;;
35442;SDS011;21561;55.654;37.592;2022-11-20T02:03:51;20.10;;;8.02;;
35442;SDS011;21561;55.654;37.592;2022-11-20T02:06:23;19.85;;;8.23;;
35442;SDS011;21561;55.654;37.592;2022-11-20T02:08:52;20.80;;;8.75;;
35442;SDS011;21561;55.654;37.592;2022-11-20T02:11:18;21.80;;;8.80;;
35442;SDS011;21561;55.654;37.592;2022-11-20T02:13:45;19.92;;;8.70;;
35442;SDS011;21561;55.654;37.592;2022-11-20T02:16:23;24.10;;;9.38;;
35442;SDS011;21561;55.654;37.592;2022-11-20T02:18:53;19.70;;;8.15;;
35442;SDS011;21561;55.654;37.592;2022-11-20T02:21:24;20.67;;;8.80;;
35442;SDS011;21561;55.654;37.592;2022-11-20T02:24:09;22.90;;;9.20;;
35442;SDS011;21561;55.654;37.592;2022-11-20T02:26:50;20.92;;;9.13;;
35442;SDS011;21561;55.654;37.592;2022-11-20T02:29:23;21.75;;;8.88;;
35442;SDS011;21561;55.654;37.592;2022-11-20T02:32:06;19.20;;;8.10;;
35442;SDS011;21561;55.654;37.592;2022-11-20T02:34:32;19.98;;;8.30;;
35442;SDS011;21561;55.654;37.592;2022-11-20T02:36:59;20.38;;;7.75;;
35442;SDS011;21561;55.654;37.592;2022-11-20T02:39:26;20.58;;;8.52;;
35442;SDS011;21561;55.654;37.592;2022-11-20T02:41:54;18.67;;;7.63;;
35442;SDS011;21561;55.654;37.592;2022-11-20T02:44:22;19.40;;;8.07;;
35442;SDS011;21561;55.654;37.592;2022-11-20T02:46:49;19.63;;;8.35;;
35442;SDS011;21561;55.654;37.592;2022-11-20T02:49:15;21.10;;;8.40;;
35442;SDS011;21561;55.654;37.592;2022-11-20T02:51:43;21.38;;;8.45;;
35442;SDS011;21561;55.654;37.592;2022-11-20T02:54:10;20.95;;;8.43;;
35442;SDS011;21561;55.654;37.592;2022-11-20T02:56:37;20.95;;;8.57;;
35442;SDS011;21561;55.654;37.592;2022-11-20T02:59:05;21.58;;;8.10;;
35442;SDS011;21561;55.654;37.592;2022-11-20T03:01:32;20.83;;;8.70;;
35442;SDS011;21561;55.654;37.592;2022-11-20T03:03:59;19.35;;;8.27;;
35442;SDS011;21561;55.654;37.592;2022-11-20T03:06:26;19.83;;;8.60;;
35442;SDS011;21561;55.654;37.592;2022-11-20T03:08:53;19.33;;;8.30;;
35442;SDS011;21561;55.654;37.592;2022-11-20T03:11:20;18.92;;;7.68;;
35442;SDS011;21561;55.654;37.592;2022-11-20T03:13:47;19.27;;;7.97;;
35442;SDS011;21561;55.654;37.592;2022-11-20T03:16:18;19.23;;;7.45;;
35442;SDS011;21561;55.654;37.592;2022-11-20T03:18:46;20.23;;;9.25;;
35442;SDS011;21561;55.654;37.592;2022-11-20T03:21:13;20.77;;;8.30;;
35442;SDS011;21561;55.654;37.592;2022-11-20T03:23:41;21.05;;;8.20;;
35442;SDS011;21561;55.654;37.592;2022-11-20T03:26:09;19.48;;;7.75;;
35442;SDS011;21561;55.654;37.592;2022-11-20T03:28:38;19.38;;;8.32;;
35442;SDS011;21561;55.654;37.592;2022-11-20T03:31:12;18.52;;;8.07;;
35442;SDS011;21561;55.654;37.592;2022-11-20T03:33:40;20.10;;;8.05;;
35442;SDS011;21561;55.654;37.592;2022-11-20T03:36:09;20.15;;;7.82;;
35442;SDS011;21561;55.654;37.592;2022-11-20T03:38:38;20.85;;;8.23;;
35442;SDS011;21561;55.654;37.592;2022-11-20T03:41:09;22.30;;;8.60;;
35442;SDS011;21561;55.654;37.592;2022-11-20T03:43:47;19.17;;;7.90;;
35442;SDS011;21561;55.654;37.592;2022-11-20T03:48:42;18.10;;;7.78;;
35442;SDS011;21561;55.654;37.592;2022-11-20T03:51:17;19.48;;;7.88;;
35442;SDS011;21561;55.654;37.592;2022-11-20T03:53:46;23.55;;;8.60;;
35442;SDS011;21561;55.654;37.592;2022-11-20T03:56:14;20.00;;;8.27;;
35442;SDS011;21561;55.654;37.592;2022-11-20T03:58:42;21.55;;;8.55;;
35442;SDS011;21561;55.654;37.592;2022-11-20T04:01:11;19.40;;;7.63;;
35442;SDS011;21561;55.654;37.592;2022-11-20T04:03:40;18.27;;;7.82;;
35442;SDS011;21561;55.654;37.592;2022-11-20T04:06:09;21.60;;;7.72;;
35442;SDS011;21561;55.654;37.592;2022-11-20T04:08:38;21.83;;;8.25;;
35442;SDS011;21561;55.654;37.592;2022-11-20T04:11:17;20.30;;;7.95;;
35442;SDS011;21561;55.654;37.592;2022-11-20T04:13:46;21.17;;;8.43;;
35442;SDS011;21561;55.654;37.592;2022-11-20T04:16:14;21.05;;;8.25;;
35442;SDS011;21561;55.654;37.592;2022-11-20T04:18:41;22.48;;;8.38;;
35442;SDS011;21561;55.654;37.592;2022-11-20T04:21:09;19.88;;;8.32;;
35442;SDS011;21561;55.654;37.592;2022-11-20T04:23:37;19.10;;;7.93;;
35442;SDS011;21561;55.654;37.592;2022-11-20T04:26:05;21.15;;;7.85;;
35442;SDS011;21561;55.654;37.592;2022-11-20T04:28:35;20.08;;;7.90;;
35442;SDS011;21561;55.654;37.592;2022-11-20T04:31:03;20.88;;;8.43;;
35442;SDS011;21561;55.654;37.592;2022-11-20T04:33:32;21.98;;;8.13;;
35442;SDS011;21561;55.654;37.592;2022-11-20T04:36:00;22.45;;;8.48;;
35442;SDS011;21561;55.654;37.592;2022-11-20T04:38:32;21.52;;;9.05;;
35442;SDS011;21561;55.654;37.592;2022-11-20T04:41:09;22.88;;;7.85;;
35442;SDS011;21561;55.654;37.592;2022-11-20T04:43:41;21.38;;;8.75;;
35442;SDS011;21561;55.654;37.592;2022-11-20T04:48:40;23.38;;;8.90;;
35442;SDS011;21561;55.654;37.592;2022-11-20T04:51:07;21.98;;;8.93;;
35442;SDS011;21561;55.654;37.592;2022-11-20T04:53:33;22.33;;;9.23;;
35442;SDS011;21561;55.654;37.592;2022-11-20T04:56:00;21.95;;;8.73;;
35442;SDS011;21561;55.654;37.592;2022-11-20T04:58:28;21.42;;;8.55;;
35442;SDS011;21561;55.654;37.592;2022-11-20T05:03:41;22.67;;;9.48;;
35442;SDS011;21561;55.654;37.592;2022-11-20T05:06:09;22.55;;;9.02;;
35442;SDS011;21561;55.654;37.592;2022-11-20T05:08:40;21.42;;;8.85;;
35442;SDS011;21561;55.654;37.592;2022-11-20T05:11:08;22.05;;;8.98;;
35442;SDS011;21561;55.654;37.592;2022-11-20T05:13:37;24.35;;;9.10;;
35442;SDS011;21561;55.654;37.592;2022-11-20T05:16:06;21.00;;;8.35;;
35442;SDS011;21561;55.654;37.592;2022-11-20T05:18:35;22.60;;;8.60;;
35442;SDS011;21561;55.654;37.592;2022-11-20T05:21:02;22.00;;;9.00;;
35442;SDS011;21561;55.654;37.592;2022-11-20T05:23:30;22.55;;;9.27;;
35442;SDS011;21561;55.654;37.592;2022-11-20T05:25:58;23.55;;;8.82;;
35442;SDS011;21561;55.654;37.592;2022-11-20T05:28:26;22.83;;;9.02;;
35442;SDS011;21561;55.654;37.592;2022-11-20T05:30:54;22.38;;;9.38;;
35442;SDS011;21561;55.654;37.592;2022-11-20T05:33:20;21.60;;;8.75;;
35442;SDS011;21561;55.654;37.592;2022-11-20T05:35:48;24.30;;;8.57;;
35442;SDS011;21561;55.654;37.592;2022-11-20T05:38:15;22.10;;;8.50;;
35442;SDS011;21561;55.654;37.592;2022-11-20T05:40:42;21.35;;;8.80;;
35442;SDS011;21561;55.654;37.592;2022-11-20T05:43:09;21.73;;;8.20;;
35442;SDS011;21561;55.654;37.592;2022-11-20T05:45:35;23.77;;;9.02;;
35442;SDS011;21561;55.654;37.592;2022-11-20T05:48:02;22.08;;;8.52;;
35442;SDS011;21561;55.654;37.592;2022-11-20T05:50:29;24.98;;;9.70;;
35442;SDS011;21561;55.654;37.592;2022-11-20T05:52:59;21.60;;;8.63;;
35442;SDS011;21561;55.654;37.592;2022-11-20T05:55:26;26.40;;;8.73;;
35442;SDS011;21561;55.654;37.592;2022-11-20T05:57:54;21.60;;;8.63;;
35442;SDS011;21561;55.654;37.592;2022-11-20T06:00:21;22.23;;;9.35;;
35442;SDS011;21561;55.654;37.592;2022-11-20T06:02:48;20.75;;;9.23;;
35442;SDS011;21561;55.654;37.592;2022-11-20T06:05:15;21.85;;;8.35;;
35442;SDS011;21561;55.654;37.592;2022-11-20T06:07:42;22.30;;;8.60;;
35442;SDS011;21561;55.654;37.592;2022-11-20T06:10:09;26.13;;;9.18;;
35442;SDS011;21561;55.654;37.592;2022-11-20T06:12:37;21.58;;;8.82;;
35442;SDS011;21561;55.654;37.592;2022-11-20T06:15:04;23.92;;;9.32;;
35442;SDS011;21561;55.654;37.592;2022-11-20T06:17:32;23.08;;;9.00;;
35442;SDS011;21561;55.654;37.592;2022-11-20T06:19:58;23.10;;;9.80;;
35442;SDS011;21561;55.654;37.592;2022-11-20T06:22:25;23.05;;;9.45;;
35442;SDS011;21561;55.654;37.592;2022-11-20T06:24:52;23.48;;;8.98;;
35442;SDS011;21561;55.654;37.592;2022-11-20T06:27:18;22.52;;;9.80;;
35442;SDS011;21561;55.654;37.592;2022-11-20T06:29:45;21.40;;;9.20;;
35442;SDS011;21561;55.654;37.592;2022-11-20T06:32:12;22.98;;;9.18;;
35442;SDS011;21561;55.654;37.592;2022-11-20T06:34:38;24.42;;;10.43;;
35442;SDS011;21561;55.654;37.592;2022-11-20T06:37:05;25.55;;;9.52;;
35442;SDS011;21561;55.654;37.592;2022-11-20T06:39:32;25.15;;;9.80;;
35442;SDS011;21561;55.654;37.592;2022-11-20T06:41:58;25.40;;;10.35;;
35442;SDS011;21561;55.654;37.592;2022-11-20T06:44:25;21.80;;;8.43;;
35442;SDS011;21561;55.654;37.592;2022-11-20T06:46:52;23.20;;;9.20;;
35442;SDS011;21561;55.654;37.592;2022-11-20T06:49:19;24.67;;;8.95;;
35442;SDS011;21561;55.654;37.592;2022-11-20T06:51:46;21.58;;;8.68;;
35442;SDS011;21561;55.654;37.592;2022-11-20T06:54:13;23.10;;;8.85;;
35442;SDS011;21561;55.654;37.592;2022-11-20T06:56:40;21.13;;;8.27;;
35442;SDS011;21561;55.654;37.592;2022-11-20T06:59:06;21.90;;;8.63;;
35442;SDS011;21561;55.654;37.592;2022-11-20T07:01:33;20.20;;;8.20;;
35442;SDS011;21561;55.654;37.592;2022-11-20T07:04:01;22.63;;;8.63;;
35442;SDS011;21561;55.654;37.592;2022-11-20T07:06:29;22.27;;;8.45;;
35442;SDS011;21561;55.654;37.592;2022-11-20T07:08:56;22.35;;;8.07;;
35442;SDS011;21561;55.654;37.592;2022-11-20T07:11:23;20.90;;;8.05;;
35442;SDS011;21561;55.654;37.592;2022-11-20T07:13:50;21.58;;;8.48;;
35442;SDS011;21561;55.654;37.592;2022-11-20T07:16:16;21.08;;;8.15;;
35442;SDS011;21561;55.654;37.592;2022-11-20T07:18:43;21.85;;;8.30;;
35442;SDS011;21561;55.654;37.592;2022-11-20T07:21:16;21.55;;;8.05;;
35442;SDS011;21561;55.654;37.592;2022-11-20T07:23:42;21.55;;;9.00;;
35442;SDS011;21561;55.654;37.592;2022-11-20T07:26:10;20.60;;;8.07;;
35442;SDS011;21561;55.654;37.592;2022-11-20T07:28:37;21.65;;;8.70;;
35442;SDS011;21561;55.654;37.592;2022-11-20T07:31:05;21.58;;;8.88;;
35442;SDS011;21561;55.654;37.592;2022-11-20T07:33:33;22.83;;;8.93;;
35442;SDS011;21561;55.654;37.592;2022-11-20T07:36:00;19.92;;;7.93;;
35442;SDS011;21561;55.654;37.592;2022-11-20T07:38:27;23.75;;;8.75;;
35442;SDS011;21561;55.654;37.592;2022-11-20T07:40:54;26.13;;;9.45;;
35442;SDS011;21561;55.654;37.592;2022-11-20T07:43:23;22.25;;;9.00;;
35442;SDS011;21561;55.654;37.592;2022-11-20T07:45:50;23.17;;;9.10;;
35442;SDS011;21561;55.654;37.592;2022-11-20T07:48:17;20.95;;;8.65;;
35442;SDS011;21561;55.654;37.592;2022-11-20T07:50:44;23.52;;;9.68;;
35442;SDS011;21561;55.654;37.592;2022-11-20T07:53:10;27.40;;;9.35;;
35442;SDS011;21561;55.654;37.592;2022-11-20T07:55:39;22.25;;;8.98;;
35442;SDS011;21561;55.654;37.592;2022-11-20T07:58:05;23.95;;;9.25;;
35442;SDS011;21561;55.654;37.592;2022-11-20T08:00:32;25.50;;;9.70;;
35442;SDS011;21561;55.654;37.592;2022-11-20T08:02:59;23.98;;;10.18;;
35442;SDS011;21561;55.654;37.592;2022-11-20T08:05:29;28.30;;;10.43;;
35442;SDS011;21561;55.654;37.592;2022-11-20T08:07:56;26.00;;;10.10;;
35442;SDS011;21561;55.654;37.592;2022-11-20T08:10:23;25.88;;;9.88;;
35442;SDS011;21561;55.654;37.592;2022-11-20T08:12:50;23.83;;;10.23;;
35442;SDS011;21561;55.654;37.592;2022-11-20T08:15:38;25.30;;;10.13;;
35442;SDS011;21561;55.654;37.592;2022-11-20T08:20:54;25.55;;;10.10;;
35442;SDS011;21561;55.654;37.592;2022-11-20T08:23:22;23.52;;;9.88;;
35442;SDS011;21561;55.654;37.592;2022-11-20T08:25:49;24.33;;;9.80;;
35442;SDS011;21561;55.654;37.592;2022-11-20T08:28:17;29.92;;;11.63;;
35442;SDS011;21561;55.654;37.592;2022-11-20T08:30:47;23.83;;;9.95;;
35442;SDS011;21561;55.654;37.592;2022-11-20T08:33:15;26.85;;;10.52;;
35442;SDS011;21561;55.654;37.592;2022-11-20T08:35:43;27.67;;;11.05;;
35442;SDS011;21561;55.654;37.592;2022-11-20T08:38:10;28.92;;;11.68;;
35442;SDS011;21561;55.654;37.592;2022-11-20T08:40:37;27.52;;;10.98;;
35442;SDS011;21561;55.654;37.592;2022-11-20T08:43:03;29.88;;;11.30;;
35442;SDS011;21561;55.654;37.592;2022-11-20T08:45:30;31.58;;;11.95;;
35442;SDS011;21561;55.654;37.592;2022-11-20T08:48:01;35.08;;;11.50;;
35442;SDS011;21561;55.654;37.592;2022-11-20T08:50:28;28.15;;;11.18;;
35442;SDS011;21561;55.654;37.592;2022-11-20T08:53:04;26.92;;;10.82;;
35442;SDS011;21561;55.654;37.592;2022-11-20T08:55:31;33.78;;;13.15;;
35442;SDS011;21561;55.654;37.592;2022-11-20T08:58:02;33.08;;;12.90;;
35442;SDS011;21561;55.654;37.592;2022-11-20T09:00:30;34.83;;;13.70;;
35442;SDS011;21561;55.654;37.592;2022-11-20T09:02:58;32.75;;;12.48;;
35442;SDS011;21561;55.654;37.592;2022-11-20T09:05:27;33.58;;;13.63;;
35442;SDS011;21561;55.654;37.592;2022-11-20T09:07:57;35.35;;;13.52;;
35442;SDS011;21561;55.654;37.592;2022-11-20T09:10:24;37.00;;;13.43;;
35442;SDS011;21561;55.654;37.592;2022-11-20T09:12:54;34.65;;;13.23;;
35442;SDS011;21561;55.654;37.592;2022-11-20T09:15:22;44.60;;;14.07;;
35442;SDS011;21561;55.654;37.592;2022-11-20T09:17:53;38.03;;;14.00;;
35442;SDS011;21561;55.654;37.592;2022-11-20T09:20:25;37.40;;;14.35;;
35442;SDS011;21561;55.654;37.592;2022-11-20T09:22:52;41.80;;;14.50;;
35442;SDS011;21561;55.654;37.592;2022-11-20T09:25:19;39.97;;;14.40;;
35442;SDS011;21561;55.654;37.592;2022-11-20T09:27:46;36.38;;;13.50;;
35442;SDS011;21561;55.654;37.592;2022-11-20T09:30:14;33.30;;;13.90;;
35442;SDS011;21561;55.654;37.592;2022-11-20T09:32:41;40.50;;;14.82;;
35442;SDS011;21561;55.654;37.592;2022-11-20T09:35:09;38.13;;;14.57;;
35442;SDS011;21561;55.654;37.592;2022-11-20T09:37:37;37.45;;;14.55;;
35442;SDS011;21561;55.654;37.592;2022-11-20T09:40:04;37.55;;;15.43;;
35442;SDS011;21561;55.654;37.592;2022-11-20T09:45:15;39.08;;;14.63;;
35442;SDS011;21561;55.654;37.592;2022-11-20T09:48:08;35.28;;;14.32;;
35442;SDS011;21561;55.654;37.592;2022-11-20T09:51:05;42.03;;;15.23;;
35442;SDS011;21561;55.654;37.592;2022-11-20T09:54:18;37.08;;;14.55;;
35442;SDS011;21561;55.654;37.592;2022-11-20T09:56:51;39.70;;;14.52;;
35442;SDS011;21561;55.654;37.592;2022-11-20T10:01:58;37.88;;;13.85;;
35442;SDS011;21561;55.654;37.592;2022-11-20T10:04:26;37.72;;;14.13;;
35442;SDS011;21561;55.654;37.592;2022-11-20T10:10:18;39.08;;;14.63;;
35442;SDS011;21561;55.654;37.592;2022-11-20T10:26:33;32.92;;;14.38;;
35442;SDS011;21561;55.654;37.592;2022-11-20T10:29:15;32.97;;;13.18;;
35442;SDS011;21561;55.654;37.592;2022-11-20T10:31:46;31.77;;;11.68;;
35442;SDS011;21561;55.654;37.592;2022-11-20T10:34:28;39.80;;;13.02;;
35442;SDS011;21561;55.654;37.592;2022-11-20T10:37:09;34.50;;;13.18;;
35442;SDS011;21561;55.654;37.592;2022-11-20T10:42:13;30.33;;;12.48;;
35442;SDS011;21561;55.654;37.592;2022-11-20T10:44:47;31.30;;;12.80;;
35442;SDS011;21561;55.654;37.592;2022-11-20T10:47:31;31.67;;;11.93;;
35442;SDS011;21561;55.654;37.592;2022-11-20T10:50:01;28.25;;;12.18;;
35442;SDS011;21561;55.654;37.592;2022-11-20T10:52:35;27.10;;;11.38;;
35442;SDS011;21561;55.654;37.592;2022-11-20T11:03:13;26.98;;;10.13;;
35442;SDS011;21561;55.654;37.592;2022-11-20T11:05:58;27.50;;;10.65;;
35442;SDS011;21561;55.654;37.592;2022-11-20T11:08:32;29.00;;;10.82;;
35442;SDS011;21561;55.654;37.592;2022-11-20T11:11:18;26.50;;;10.20;;
35442;SDS011;21561;55.654;37.592;2022-11-20T11:13:49;25.70;;;10.45;;
35442;SDS011;21561;55.654;37.592;2022-11-20T11:16:20;25.60;;;11.30;;
35442;SDS011;21561;55.654;37.592;2022-11-20T11:18:51;27.50;;;10.82;;
35442;SDS011;21561;55.654;37.592;2022-11-20T11:21:29;25.80;;;11.30;;
35442;SDS011;21561;55.654;37.592;2022-11-20T11:23:58;25.88;;;10.57;;
35442;SDS011;21561;55.654;37.592;2022-11-20T11:27:20;23.60;;;10.40;;
35442;SDS011;21561;55.654;37.592;2022-11-20T11:29:43;27.23;;;10.32;;
35442;SDS011;21561;55.654;37.592;2022-11-20T11:32:15;22.55;;;9.25;;
35442;SDS011;21561;55.654;37.592;2022-11-20T11:34:44;24.65;;;9.88;;
35442;SDS011;21561;55.654;37.592;2022-11-20T11:37:18;23.67;;;9.82;;
35442;SDS011;21561;55.654;37.592;2022-11-20T11:39:47;26.50;;;10.40;;
35442;SDS011;21561;55.654;37.592;2022-11-20T11:42:34;23.23;;;9.45;;
35442;SDS011;21561;55.654;37.592;2022-11-20T11:45:11;23.08;;;10.02;;
35442;SDS011;21561;55.654;37.592;2022-11-20T11:47:44;23.13;;;9.90;;
35442;SDS011;21561;55.654;37.592;2022-11-20T11:50:15;26.43;;;9.93;;
35442;SDS011;21561;55.654;37.592;2022-11-20T12:00:57;22.42;;;9.88;;
35442;SDS011;21561;55.654;37.592;2022-11-20T12:03:38;24.05;;;9.77;;
35442;SDS011;21561;55.654;37.592;2022-11-20T12:06:11;24.90;;;10.10;;
35442;SDS011;21561;55.654;37.592;2022-11-20T12:08:57;26.42;;;10.20;;
35442;SDS011;21561;55.654;37.592;2022-11-20T12:14:45;23.92;;;9.45;;
35442;SDS011;21561;55.654;37.592;2022-11-20T12:17:16;22.55;;;9.50;;
35442;SDS011;21561;55.654;37.592;2022-11-20T12:19:44;21.63;;;9.07;;
35442;SDS011;21561;55.654;37.592;2022-11-20T12:30:18;20.65;;;8.95;;
35442;SDS011;21561;55.654;37.592;2022-11-20T12:59:05;22.80;;;9.35;;
35442;SDS011;21561;55.654;37.592;2022-11-20T13:07:29;24.67;;;10.25;;
35442;SDS011;21561;55.654;37.592;2022-11-20T13:09:58;32.53;;;10.07;;
35442;SDS011;21561;55.654;37.592;2022-11-20T13:17:44;24.42;;;9.18;;
35442;SDS011;21561;55.654;37.592;2022-11-20T13:20:18;21.58;;;8.73;;
35442;SDS011;21561;55.654;37.592;2022-11-20T13:22:50;23.70;;;9.32;;
35442;SDS011;21561;55.654;37.592;2022-11-20T13:27:52;21.95;;;9.10;;
35442;SDS011;21561;55.654;37.592;2022-11-20T13:30:20;23.23;;;9.98;;
35442;SDS011;21561;55.654;37.592;2022-11-20T13:33:08;21.83;;;8.93;;
35442;SDS011;21561;55.654;37.592;2022-11-20T13:35:56;21.23;;;9.00;;
35442;SDS011;21561;55.654;37.592;2022-11-20T13:38:26;22.60;;;9.15;;
35442;SDS011;21561;55.654;37.592;2022-11-20T13:41:01;20.05;;;8.38;;
35442;SDS011;21561;55.654;37.592;2022-11-20T13:43:48;21.92;;;8.13;;
35442;SDS011;21561;55.654;37.592;2022-11-20T13:46:15;24.75;;;9.05;;
35442;SDS011;21561;55.654;37.592;2022-11-20T13:48:45;19.58;;;8.30;;
35442;SDS011;21561;55.654;37.592;2022-11-20T13:54:14;20.90;;;8.25;;
35442;SDS011;21561;55.654;37.592;2022-11-20T14:02:52;24.00;;;9.13;;
35442;SDS011;21561;55.654;37.592;2022-11-20T14:05:27;22.88;;;9.75;;
35442;SDS011;21561;55.654;37.592;2022-11-20T14:07:57;22.92;;;8.52;;
35442;SDS011;21561;55.654;37.592;2022-11-20T14:10:25;23.17;;;8.45;;
35442;SDS011;21561;55.654;37.592;2022-11-20T14:12:58;22.42;;;8.95;;
35442;SDS011;21561;55.654;37.592;2022-11-20T14:15:26;22.33;;;8.27;;
35442;SDS011;21561;55.654;37.592;2022-11-20T14:18:12;23.83;;;9.65;;
35442;SDS011;21561;55.654;37.592;2022-11-20T14:20:41;24.33;;;10.00;;
35442;SDS011;21561;55.654;37.592;2022-11-20T14:23:09;20.58;;;8.23;;
35442;SDS011;21561;55.654;37.592;2022-11-20T14:25:37;21.80;;;8.52;;
35442;SDS011;21561;55.654;37.592;2022-11-20T14:28:11;21.27;;;8.23;;
35442;SDS011;21561;55.654;37.592;2022-11-20T14:30:49;19.90;;;7.93;;
35442;SDS011;21561;55.654;37.592;2022-11-20T14:33:16;21.60;;;8.57;;
35442;SDS011;21561;55.654;37.592;2022-11-20T14:35:47;22.55;;;8.55;;
35442;SDS011;21561;55.654;37.592;2022-11-20T14:38:17;22.30;;;8.50;;
35442;SDS011;21561;55.654;37.592;2022-11-20T14:40:46;22.58;;;8.48;;
35442;SDS011;21561;55.654;37.592;2022-11-20T14:43:26;20.58;;;8.40;;
35442;SDS011;21561;55.654;37.592;2022-11-20T14:45:55;21.88;;;8.68;;
35442;SDS011;21561;55.654;37.592;2022-11-20T14:48:31;22.20;;;9.13;;
35442;SDS011;21561;55.654;37.592;2022-11-20T14:51:03;22.92;;;9.18;;
35442;SDS011;21561;55.654;37.592;2022-11-20T14:53:30;21.05;;;8.25;;
35442;SDS011;21561;55.654;37.592;2022-11-20T14:55:58;25.70;;;9.63;;
35442;SDS011;21561;55.654;37.592;2022-11-20T14:58:30;23.80;;;9.63;;
35442;SDS011;21561;55.654;37.592;2022-11-20T15:01:00;23.92;;;9.50;;
35442;SDS011;21561;55.654;37.592;2022-11-20T15:03:36;23.25;;;9.38;;
35442;SDS011;21561;55.654;37.592;2022-11-20T15:06:05;25.83;;;10.27;;
35442;SDS011;21561;55.654;37.592;2022-11-20T15:08:38;23.98;;;9.73;;
35442;SDS011;21561;55.654;37.592;2022-11-20T15:11:15;24.23;;;9.57;;
35442;SDS011;21561;55.654;37.592;2022-11-20T15:13:50;22.08;;;9.52;;
35442;SDS011;21561;55.654;37.592;2022-11-20T15:16:20;23.20;;;9.85;;
35442;SDS011;21561;55.654;37.592;2022-11-20T15:18:48;25.48;;;10.63;;
35442;SDS011;21561;55.654;37.592;2022-11-20T15:21:16;26.33;;;10.30;;
35442;SDS011;21561;55.654;37.592;2022-11-20T15:23:44;22.63;;;9.70;;
35442;SDS011;21561;55.654;37.592;2022-11-20T15:26:12;26.00;;;10.27;;
35442;SDS011;21561;55.654;37.592;2022-11-20T15:28:46;27.20;;;10.55;;
35442;SDS011;21561;55.654;37.592;2022-11-20T15:31:15;24.60;;;10.13;;
35442;SDS011;21561;55.654;37.592;2022-11-20T15:33:44;24.08;;;9.65;;
35442;SDS011;21561;55.654;37.592;2022-11-20T15:36:12;26.00;;;10.35;;
35442;SDS011;21561;55.654;37.592;2022-11-20T15:38:39;22.80;;;9.20;;
35442;SDS011;21561;55.654;37.592;2022-11-20T15:41:06;23.77;;;9.68;;
35442;SDS011;21561;55.654;37.592;2022-11-20T15:43:33;23.80;;;10.05;;
35442;SDS011;21561;55.654;37.592;2022-11-20T15:46:05;25.38;;;10.63;;
35442;SDS011;21561;55.654;37.592;2022-11-20T15:48:44;29.63;;;11.00;;
35442;SDS011;21561;55.654;37.592;2022-11-20T15:54:09;24.98;;;9.80;;
35442;SDS011;21561;55.654;37.592;2022-11-20T15:56:40;23.33;;;9.13;;
35442;SDS011;21561;55.654;37.592;2022-11-20T15:59:07;26.40;;;10.02;;
35442;SDS011;21561;55.654;37.592;2022-11-20T16:01:34;26.13;;;10.48;;
35442;SDS011;21561;55.654;37.592;2022-11-20T16:04:01;27.48;;;10.45;;
35442;SDS011;21561;55.654;37.592;2022-11-20T16:06:28;26.40;;;11.02;;
35442;SDS011;21561;55.654;37.592;2022-11-20T16:08:55;25.35;;;10.23;;
35442;SDS011;21561;55.654;37.592;2022-11-20T16:11:21;23.95;;;10.18;;
35442;SDS011;21561;55.654;37.592;2022-11-20T16:13:48;26.67;;;10.45;;
35442;SDS011;21561;55.654;37.592;2022-11-20T16:16:35;27.33;;;10.65;;
35442;SDS011;21561;55.654;37.592;2022-11-20T16:19:03;24.48;;;10.02;;
35442;SDS011;21561;55.654;37.592;2022-11-20T16:21:30;24.25;;;11.10;;
35442;SDS011;21561;55.654;37.592;2022-11-20T16:24:01;26.25;;;10.57;;
35442;SDS011;21561;55.654;37.592;2022-11-20T16:26:31;27.80;;;10.10;;
35442;SDS011;21561;55.654;37.592;2022-11-20T16:28:58;25.10;;;10.57;;
35442;SDS011;21561;55.654;37.592;2022-11-20T16:31:26;42.90;;;12.63;;
35442;SDS011;21561;55.654;37.592;2022-11-20T16:33:54;27.98;;;10.93;;
35442;SDS011;21561;55.654;37.592;2022-11-20T16:36:23;25.75;;;9.88;;
35442;SDS011;21561;55.654;37.592;2022-11-20T16:38:52;25.33;;;10.23;;